sensor_id;sensor_type;location;lat;lon;timestamp;P1;durP1;ratioP1;P2;durP2;ratioP2
39404;SDS011;25121;51.090;17.038;2022-12-07T00:00:32;19.75;;;12.98;;
39404;SDS011;25121;51.090;17.038;2022-12-07T00:01:54;16.25;;;11.95;;
39404;SDS011;25121;51.090;17.038;2022-12-07T00:03:22;18.77;;;13.40;;
39404;SDS011;25121;51.090;17.038;2022-12-07T00:04:43;18.27;;;13.87;;
39404;SDS011;25121;51.090;17.038;2022-12-07T00:06:06;18.38;;;11.82;;
39404;SDS011;25121;51.090;17.038;2022-12-07T00:07:32;17.73;;;12.65;;
39404;SDS011;25121;51.090;17.038;2022-12-07T00:08:55;18.45;;;13.15;;
39404;SDS011;25121;51.090;17.038;2022-12-07T00:10:21;15.82;;;12.20;;
39404;SDS011;25121;51.090;17.038;2022-12-07T00:11:46;15.98;;;11.70;;
39404;SDS011;25121;51.090;17.038;2022-12-07T00:13:12;14.88;;;11.70;;
39404;SDS011;25121;51.090;17.038;2022-12-07T00:14:35;14.10;;;10.75;;
39404;SDS011;25121;51.090;17.038;2022-12-07T00:16:09;12.32;;;9.90;;
39404;SDS011;25121;51.090;17.038;2022-12-07T00:17:42;15.65;;;10.40;;
39404;SDS011;25121;51.090;17.038;2022-12-07T00:19:21;13.52;;;10.02;;
39404;SDS011;25121;51.090;17.038;2022-12-07T00:20:46;11.93;;;9.65;;
39404;SDS011;25121;51.090;17.038;2022-12-07T00:22:08;13.02;;;10.00;;
39404;SDS011;25121;51.090;17.038;2022-12-07T00:23:32;10.80;;;8.70;;
39404;SDS011;25121;51.090;17.038;2022-12-07T00:24:54;12.60;;;8.93;;
39404;SDS011;25121;51.090;17.038;2022-12-07T00:26:19;12.20;;;9.18;;
39404;SDS011;25121;51.090;17.038;2022-12-07T00:27:46;11.15;;;8.68;;
39404;SDS011;25121;51.090;17.038;2022-12-07T00:29:13;10.38;;;8.18;;
39404;SDS011;25121;51.090;17.038;2022-12-07T00:30:41;12.65;;;8.50;;
39404;SDS011;25121;51.090;17.038;2022-12-07T00:32:11;10.88;;;8.20;;
39404;SDS011;25121;51.090;17.038;2022-12-07T00:34:28;10.52;;;7.43;;
39404;SDS011;25121;51.090;17.038;2022-12-07T00:36:02;9.00;;;7.60;;
39404;SDS011;25121;51.090;17.038;2022-12-07T00:37:32;11.57;;;6.70;;
39404;SDS011;25121;51.090;17.038;2022-12-07T00:39:01;9.13;;;7.38;;
39404;SDS011;25121;51.090;17.038;2022-12-07T00:40:35;8.43;;;6.65;;
39404;SDS011;25121;51.090;17.038;2022-12-07T00:42:14;8.25;;;6.72;;
39404;SDS011;25121;51.090;17.038;2022-12-07T00:43:43;9.48;;;7.13;;
39404;SDS011;25121;51.090;17.038;2022-12-07T00:45:18;8.13;;;6.85;;
39404;SDS011;25121;51.090;17.038;2022-12-07T00:46:41;8.93;;;6.97;;
39404;SDS011;25121;51.090;17.038;2022-12-07T00:48:07;8.55;;;6.15;;
39404;SDS011;25121;51.090;17.038;2022-12-07T00:49:35;8.93;;;7.07;;
39404;SDS011;25121;51.090;17.038;2022-12-07T00:50:57;8.85;;;6.72;;
39404;SDS011;25121;51.090;17.038;2022-12-07T00:52:22;7.78;;;6.38;;
39404;SDS011;25121;51.090;17.038;2022-12-07T00:53:44;8.23;;;6.15;;
39404;SDS011;25121;51.090;17.038;2022-12-07T00:55:05;8.07;;;7.00;;
39404;SDS011;25121;51.090;17.038;2022-12-07T00:56:30;8.52;;;6.30;;
39404;SDS011;25121;51.090;17.038;2022-12-07T00:57:53;7.10;;;6.35;;
39404;SDS011;25121;51.090;17.038;2022-12-07T00:59:14;9.15;;;5.90;;
39404;SDS011;25121;51.090;17.038;2022-12-07T01:00:37;8.07;;;5.55;;
39404;SDS011;25121;51.090;17.038;2022-12-07T01:01:59;7.22;;;6.18;;
39404;SDS011;25121;51.090;17.038;2022-12-07T01:03:22;6.63;;;5.85;;
39404;SDS011;25121;51.090;17.038;2022-12-07T01:04:42;6.82;;;5.75;;
39404;SDS011;25121;51.090;17.038;2022-12-07T01:06:05;8.00;;;6.07;;
39404;SDS011;25121;51.090;17.038;2022-12-07T01:07:26;6.57;;;4.80;;
39404;SDS011;25121;51.090;17.038;2022-12-07T01:08:48;6.47;;;5.88;;
39404;SDS011;25121;51.090;17.038;2022-12-07T01:10:10;7.25;;;5.65;;
39404;SDS011;25121;51.090;17.038;2022-12-07T01:11:35;6.90;;;5.70;;
39404;SDS011;25121;51.090;17.038;2022-12-07T01:12:58;6.40;;;5.35;;
39404;SDS011;25121;51.090;17.038;2022-12-07T01:14:21;6.22;;;5.50;;
39404;SDS011;25121;51.090;17.038;2022-12-07T01:15:43;6.75;;;6.05;;
39404;SDS011;25121;51.090;17.038;2022-12-07T01:17:07;6.25;;;5.20;;
39404;SDS011;25121;51.090;17.038;2022-12-07T01:18:29;6.80;;;5.45;;
39404;SDS011;25121;51.090;17.038;2022-12-07T01:19:52;7.47;;;5.97;;
39404;SDS011;25121;51.090;17.038;2022-12-07T01:21:15;6.22;;;5.55;;
39404;SDS011;25121;51.090;17.038;2022-12-07T01:22:38;7.00;;;5.50;;
39404;SDS011;25121;51.090;17.038;2022-12-07T01:24:00;6.07;;;5.18;;
39404;SDS011;25121;51.090;17.038;2022-12-07T01:25:24;6.18;;;5.55;;
39404;SDS011;25121;51.090;17.038;2022-12-07T01:26:45;6.45;;;4.97;;
39404;SDS011;25121;51.090;17.038;2022-12-07T01:28:08;6.60;;;5.35;;
39404;SDS011;25121;51.090;17.038;2022-12-07T01:29:29;6.90;;;5.40;;
39404;SDS011;25121;51.090;17.038;2022-12-07T01:30:55;6.85;;;5.25;;
39404;SDS011;25121;51.090;17.038;2022-12-07T01:32:21;5.60;;;5.10;;
39404;SDS011;25121;51.090;17.038;2022-12-07T01:33:46;5.90;;;5.30;;
39404;SDS011;25121;51.090;17.038;2022-12-07T01:35:09;5.82;;;5.22;;
39404;SDS011;25121;51.090;17.038;2022-12-07T01:36:31;6.45;;;5.70;;
39404;SDS011;25121;51.090;17.038;2022-12-07T01:37:54;7.68;;;5.43;;
39404;SDS011;25121;51.090;17.038;2022-12-07T01:39:16;8.48;;;5.97;;
39404;SDS011;25121;51.090;17.038;2022-12-07T01:40:38;6.55;;;4.78;;
39404;SDS011;25121;51.090;17.038;2022-12-07T01:41:59;6.65;;;5.50;;
39404;SDS011;25121;51.090;17.038;2022-12-07T01:43:23;6.40;;;5.55;;
39404;SDS011;25121;51.090;17.038;2022-12-07T01:46:56;6.40;;;4.80;;
39404;SDS011;25121;51.090;17.038;2022-12-07T01:48:24;6.97;;;4.93;;
39404;SDS011;25121;51.090;17.038;2022-12-07T01:49:48;5.82;;;4.80;;
39404;SDS011;25121;51.090;17.038;2022-12-07T01:51:11;5.03;;;4.53;;
39404;SDS011;25121;51.090;17.038;2022-12-07T01:52:35;6.53;;;5.18;;
39404;SDS011;25121;51.090;17.038;2022-12-07T01:53:58;5.47;;;4.70;;
39404;SDS011;25121;51.090;17.038;2022-12-07T01:55:21;5.55;;;4.88;;
39404;SDS011;25121;51.090;17.038;2022-12-07T01:58:08;7.20;;;5.07;;
39404;SDS011;25121;51.090;17.038;2022-12-07T01:59:32;5.45;;;4.57;;
39404;SDS011;25121;51.090;17.038;2022-12-07T02:00:55;6.78;;;5.38;;
39404;SDS011;25121;51.090;17.038;2022-12-07T02:02:17;5.18;;;4.68;;
39404;SDS011;25121;51.090;17.038;2022-12-07T02:03:42;6.97;;;4.82;;
39404;SDS011;25121;51.090;17.038;2022-12-07T02:05:06;7.13;;;4.45;;
39404;SDS011;25121;51.090;17.038;2022-12-07T02:06:28;5.47;;;4.38;;
39404;SDS011;25121;51.090;17.038;2022-12-07T02:07:55;5.22;;;4.65;;
39404;SDS011;25121;51.090;17.038;2022-12-07T02:09:18;4.80;;;4.30;;
39404;SDS011;25121;51.090;17.038;2022-12-07T02:10:39;5.63;;;4.55;;
39404;SDS011;25121;51.090;17.038;2022-12-07T02:12:01;5.93;;;5.43;;
39404;SDS011;25121;51.090;17.038;2022-12-07T02:13:24;6.75;;;4.68;;
39404;SDS011;25121;51.090;17.038;2022-12-07T02:14:48;5.90;;;4.75;;
39404;SDS011;25121;51.090;17.038;2022-12-07T02:16:18;6.85;;;4.75;;
39404;SDS011;25121;51.090;17.038;2022-12-07T02:17:50;5.75;;;3.90;;
39404;SDS011;25121;51.090;17.038;2022-12-07T02:19:23;5.82;;;4.63;;
39404;SDS011;25121;51.090;17.038;2022-12-07T02:21:12;6.18;;;4.35;;
39404;SDS011;25121;51.090;17.038;2022-12-07T02:22:48;5.57;;;3.80;;
39404;SDS011;25121;51.090;17.038;2022-12-07T02:24:25;6.80;;;4.18;;
39404;SDS011;25121;51.090;17.038;2022-12-07T02:26:14;6.22;;;4.28;;
39404;SDS011;25121;51.090;17.038;2022-12-07T02:27:59;6.00;;;4.32;;
39404;SDS011;25121;51.090;17.038;2022-12-07T02:29:30;4.63;;;3.78;;
39404;SDS011;25121;51.090;17.038;2022-12-07T02:30:58;5.43;;;3.80;;
39404;SDS011;25121;51.090;17.038;2022-12-07T02:32:26;5.20;;;3.83;;
39404;SDS011;25121;51.090;17.038;2022-12-07T02:33:57;5.80;;;3.97;;
39404;SDS011;25121;51.090;17.038;2022-12-07T02:35:28;4.50;;;3.78;;
39404;SDS011;25121;51.090;17.038;2022-12-07T02:36:55;4.43;;;3.83;;
39404;SDS011;25121;51.090;17.038;2022-12-07T02:38:23;5.43;;;4.10;;
39404;SDS011;25121;51.090;17.038;2022-12-07T02:39:53;5.70;;;4.25;;
39404;SDS011;25121;51.090;17.038;2022-12-07T02:41:22;4.55;;;4.10;;
39404;SDS011;25121;51.090;17.038;2022-12-07T02:42:50;4.68;;;3.40;;
39404;SDS011;25121;51.090;17.038;2022-12-07T02:44:16;5.60;;;3.90;;
39404;SDS011;25121;51.090;17.038;2022-12-07T02:45:43;4.45;;;4.00;;
39404;SDS011;25121;51.090;17.038;2022-12-07T02:47:10;5.60;;;4.20;;
39404;SDS011;25121;51.090;17.038;2022-12-07T02:48:34;4.60;;;3.92;;
39404;SDS011;25121;51.090;17.038;2022-12-07T02:49:58;3.70;;;3.40;;
39404;SDS011;25121;51.090;17.038;2022-12-07T02:51:20;5.13;;;4.63;;
39404;SDS011;25121;51.090;17.038;2022-12-07T02:52:43;5.53;;;4.22;;
39404;SDS011;25121;51.090;17.038;2022-12-07T02:54:07;6.28;;;4.05;;
39404;SDS011;25121;51.090;17.038;2022-12-07T02:55:33;3.80;;;3.50;;
39404;SDS011;25121;51.090;17.038;2022-12-07T02:57:01;7.95;;;3.90;;
39404;SDS011;25121;51.090;17.038;2022-12-07T02:58:37;4.25;;;3.70;;
39404;SDS011;25121;51.090;17.038;2022-12-07T03:00:11;4.50;;;3.75;;
39404;SDS011;25121;51.090;17.038;2022-12-07T03:01:39;6.20;;;4.03;;
39404;SDS011;25121;51.090;17.038;2022-12-07T03:03:10;4.97;;;3.97;;
39404;SDS011;25121;51.090;17.038;2022-12-07T03:04:38;5.38;;;3.75;;
39404;SDS011;25121;51.090;17.038;2022-12-07T03:06:11;5.05;;;4.15;;
39404;SDS011;25121;51.090;17.038;2022-12-07T03:07:43;4.28;;;3.88;;
39404;SDS011;25121;51.090;17.038;2022-12-07T03:09:14;6.32;;;4.78;;
39404;SDS011;25121;51.090;17.038;2022-12-07T03:10:42;4.40;;;4.00;;
39404;SDS011;25121;51.090;17.038;2022-12-07T03:12:12;6.03;;;5.20;;
39404;SDS011;25121;51.090;17.038;2022-12-07T03:13:41;4.90;;;4.45;;
39404;SDS011;25121;51.090;17.038;2022-12-07T03:15:10;4.75;;;4.18;;
39404;SDS011;25121;51.090;17.038;2022-12-07T03:16:36;4.50;;;4.10;;
39404;SDS011;25121;51.090;17.038;2022-12-07T03:18:02;4.93;;;4.43;;
39404;SDS011;25121;51.090;17.038;2022-12-07T03:19:25;4.63;;;4.22;;
39404;SDS011;25121;51.090;17.038;2022-12-07T03:20:49;5.68;;;4.88;;
39404;SDS011;25121;51.090;17.038;2022-12-07T03:22:13;5.15;;;4.65;;
39404;SDS011;25121;51.090;17.038;2022-12-07T03:23:37;5.65;;;4.57;;
39404;SDS011;25121;51.090;17.038;2022-12-07T03:25:04;4.78;;;4.38;;
39404;SDS011;25121;51.090;17.038;2022-12-07T03:26:30;5.40;;;4.90;;
39404;SDS011;25121;51.090;17.038;2022-12-07T03:27:56;5.85;;;5.25;;
39404;SDS011;25121;51.090;17.038;2022-12-07T03:29:22;5.15;;;4.65;;
39404;SDS011;25121;51.090;17.038;2022-12-07T03:30:47;7.20;;;4.78;;
39404;SDS011;25121;51.090;17.038;2022-12-07T03:32:15;5.28;;;4.53;;
39404;SDS011;25121;51.090;17.038;2022-12-07T03:33:45;5.25;;;4.68;;
39404;SDS011;25121;51.090;17.038;2022-12-07T03:35:14;5.70;;;5.20;;
39404;SDS011;25121;51.090;17.038;2022-12-07T03:36:40;6.00;;;5.18;;
39404;SDS011;25121;51.090;17.038;2022-12-07T03:38:10;5.15;;;4.65;;
39404;SDS011;25121;51.090;17.038;2022-12-07T03:39:36;6.72;;;5.13;;
39404;SDS011;25121;51.090;17.038;2022-12-07T03:41:03;5.95;;;4.40;;
39404;SDS011;25121;51.090;17.038;2022-12-07T03:42:30;5.00;;;4.50;;
39404;SDS011;25121;51.090;17.038;2022-12-07T03:43:54;5.82;;;5.32;;
39404;SDS011;25121;51.090;17.038;2022-12-07T03:45:17;4.90;;;4.50;;
39404;SDS011;25121;51.090;17.038;2022-12-07T03:46:42;5.95;;;5.30;;
39404;SDS011;25121;51.090;17.038;2022-12-07T03:48:14;5.18;;;4.72;;
39404;SDS011;25121;51.090;17.038;2022-12-07T03:49:45;5.75;;;4.85;;
39404;SDS011;25121;51.090;17.038;2022-12-07T03:51:13;5.05;;;4.55;;
39404;SDS011;25121;51.090;17.038;2022-12-07T03:52:42;5.30;;;4.40;;
39404;SDS011;25121;51.090;17.038;2022-12-07T03:54:09;4.93;;;4.50;;
39404;SDS011;25121;51.090;17.038;2022-12-07T03:55:33;5.57;;;4.45;;
39404;SDS011;25121;51.090;17.038;2022-12-07T03:56:58;4.82;;;4.20;;
39404;SDS011;25121;51.090;17.038;2022-12-07T03:58:22;5.28;;;4.30;;
39404;SDS011;25121;51.090;17.038;2022-12-07T03:59:46;6.13;;;4.40;;
39404;SDS011;25121;51.090;17.038;2022-12-07T04:01:09;4.93;;;4.43;;
39404;SDS011;25121;51.090;17.038;2022-12-07T04:02:30;4.65;;;4.25;;
39404;SDS011;25121;51.090;17.038;2022-12-07T04:03:55;4.63;;;4.00;;
39404;SDS011;25121;51.090;17.038;2022-12-07T04:05:17;5.47;;;4.32;;
39404;SDS011;25121;51.090;17.038;2022-12-07T04:06:38;5.43;;;4.63;;
39404;SDS011;25121;51.090;17.038;2022-12-07T04:08:00;4.82;;;4.30;;
39404;SDS011;25121;51.090;17.038;2022-12-07T04:09:21;6.10;;;5.50;;
39404;SDS011;25121;51.090;17.038;2022-12-07T04:10:44;4.80;;;4.40;;
39404;SDS011;25121;51.090;17.038;2022-12-07T04:12:06;6.63;;;4.35;;
39404;SDS011;25121;51.090;17.038;2022-12-07T04:13:27;4.97;;;4.45;;
39404;SDS011;25121;51.090;17.038;2022-12-07T04:16:13;4.45;;;4.03;;
39404;SDS011;25121;51.090;17.038;2022-12-07T04:17:35;4.85;;;4.28;;
39404;SDS011;25121;51.090;17.038;2022-12-07T04:18:59;4.60;;;4.20;;
39404;SDS011;25121;51.090;17.038;2022-12-07T04:20:21;5.40;;;4.10;;
39404;SDS011;25121;51.090;17.038;2022-12-07T04:21:43;4.60;;;4.20;;
39404;SDS011;25121;51.090;17.038;2022-12-07T04:23:04;4.68;;;4.28;;
39404;SDS011;25121;51.090;17.038;2022-12-07T04:24:26;4.60;;;4.20;;
39404;SDS011;25121;51.090;17.038;2022-12-07T04:25:48;4.78;;;4.30;;
39404;SDS011;25121;51.090;17.038;2022-12-07T04:27:14;4.85;;;4.45;;
39404;SDS011;25121;51.090;17.038;2022-12-07T04:28:35;5.28;;;4.78;;
39404;SDS011;25121;51.090;17.038;2022-12-07T04:32:41;4.68;;;4.28;;
39404;SDS011;25121;51.090;17.038;2022-12-07T04:34:05;5.10;;;4.50;;
39404;SDS011;25121;51.090;17.038;2022-12-07T04:35:26;4.88;;;4.47;;
39404;SDS011;25121;51.090;17.038;2022-12-07T04:36:49;4.43;;;4.00;;
39404;SDS011;25121;51.090;17.038;2022-12-07T04:38:11;4.35;;;3.95;;
39404;SDS011;25121;51.090;17.038;2022-12-07T04:39:32;4.97;;;4.50;;
39404;SDS011;25121;51.090;17.038;2022-12-07T04:40:54;4.40;;;4.00;;
39404;SDS011;25121;51.090;17.038;2022-12-07T04:42:16;4.50;;;4.00;;
39404;SDS011;25121;51.090;17.038;2022-12-07T04:43:38;4.65;;;4.07;;
39404;SDS011;25121;51.090;17.038;2022-12-07T04:44:59;4.32;;;4.00;;
39404;SDS011;25121;51.090;17.038;2022-12-07T04:46:21;5.38;;;4.32;;
39404;SDS011;25121;51.090;17.038;2022-12-07T04:47:44;4.72;;;4.30;;
39404;SDS011;25121;51.090;17.038;2022-12-07T04:49:07;4.55;;;4.18;;
39404;SDS011;25121;51.090;17.038;2022-12-07T04:50:29;4.45;;;4.05;;
39404;SDS011;25121;51.090;17.038;2022-12-07T04:53:13;5.43;;;4.90;;
39404;SDS011;25121;51.090;17.038;2022-12-07T04:54:35;5.45;;;5.03;;
39404;SDS011;25121;51.090;17.038;2022-12-07T04:56:00;5.03;;;4.60;;
39404;SDS011;25121;51.090;17.038;2022-12-07T04:57:24;5.75;;;5.18;;
39404;SDS011;25121;51.090;17.038;2022-12-07T04:58:47;5.97;;;5.38;;
39404;SDS011;25121;51.090;17.038;2022-12-07T05:00:10;6.15;;;5.55;;
39404;SDS011;25121;51.090;17.038;2022-12-07T05:01:32;5.72;;;4.70;;
39404;SDS011;25121;51.090;17.038;2022-12-07T05:02:55;5.53;;;5.03;;
39404;SDS011;25121;51.090;17.038;2022-12-07T05:04:18;5.43;;;4.93;;
39404;SDS011;25121;51.090;17.038;2022-12-07T05:05:40;5.68;;;5.18;;
39404;SDS011;25121;51.090;17.038;2022-12-07T05:07:03;6.25;;;5.55;;
39404;SDS011;25121;51.090;17.038;2022-12-07T05:08:24;5.25;;;4.75;;
39404;SDS011;25121;51.090;17.038;2022-12-07T05:09:46;6.47;;;5.20;;
39404;SDS011;25121;51.090;17.038;2022-12-07T05:11:08;6.10;;;5.05;;
39404;SDS011;25121;51.090;17.038;2022-12-07T05:12:52;7.65;;;5.75;;
39404;SDS011;25121;51.090;17.038;2022-12-07T05:14:15;6.28;;;5.65;;
39404;SDS011;25121;51.090;17.038;2022-12-07T05:15:41;6.05;;;5.35;;
39404;SDS011;25121;51.090;17.038;2022-12-07T05:17:04;7.32;;;5.65;;
39404;SDS011;25121;51.090;17.038;2022-12-07T05:19:51;9.20;;;6.55;;
39404;SDS011;25121;51.090;17.038;2022-12-07T05:21:13;9.02;;;6.47;;
39404;SDS011;25121;51.090;17.038;2022-12-07T05:22:37;7.15;;;6.30;;
39404;SDS011;25121;51.090;17.038;2022-12-07T05:23:59;8.38;;;5.95;;
39404;SDS011;25121;51.090;17.038;2022-12-07T05:25:20;7.43;;;5.95;;
39404;SDS011;25121;51.090;17.038;2022-12-07T05:26:43;8.15;;;6.25;;
39404;SDS011;25121;51.090;17.038;2022-12-07T05:28:06;7.82;;;6.70;;
39404;SDS011;25121;51.090;17.038;2022-12-07T05:29:31;8.00;;;5.82;;
39404;SDS011;25121;51.090;17.038;2022-12-07T05:30:54;9.40;;;6.95;;
39404;SDS011;25121;51.090;17.038;2022-12-07T05:32:19;10.60;;;7.30;;
39404;SDS011;25121;51.090;17.038;2022-12-07T05:33:41;12.18;;;8.18;;
39404;SDS011;25121;51.090;17.038;2022-12-07T05:35:05;8.88;;;7.25;;
39404;SDS011;25121;51.090;17.038;2022-12-07T05:36:27;10.20;;;7.38;;
39404;SDS011;25121;51.090;17.038;2022-12-07T05:37:51;11.07;;;7.22;;
39404;SDS011;25121;51.090;17.038;2022-12-07T05:40:36;11.88;;;8.70;;
39404;SDS011;25121;51.090;17.038;2022-12-07T05:42:00;12.55;;;8.70;;
39404;SDS011;25121;51.090;17.038;2022-12-07T05:43:32;13.18;;;8.93;;
39404;SDS011;25121;51.090;17.038;2022-12-07T05:44:55;13.15;;;9.23;;
39404;SDS011;25121;51.090;17.038;2022-12-07T05:46:17;14.23;;;9.73;;
39404;SDS011;25121;51.090;17.038;2022-12-07T05:47:38;16.23;;;10.47;;
39404;SDS011;25121;51.090;17.038;2022-12-07T05:49:01;14.63;;;10.13;;
39404;SDS011;25121;51.090;17.038;2022-12-07T05:50:24;13.18;;;9.57;;
39404;SDS011;25121;51.090;17.038;2022-12-07T05:51:53;15.82;;;10.15;;
39404;SDS011;25121;51.090;17.038;2022-12-07T05:53:15;18.05;;;11.77;;
39404;SDS011;25121;51.090;17.038;2022-12-07T05:54:42;19.75;;;12.10;;
39404;SDS011;25121;51.090;17.038;2022-12-07T05:56:13;21.33;;;12.63;;
39404;SDS011;25121;51.090;17.038;2022-12-07T05:59:39;17.48;;;11.77;;
39404;SDS011;25121;51.090;17.038;2022-12-07T06:01:01;18.08;;;12.88;;
39404;SDS011;25121;51.090;17.038;2022-12-07T06:02:25;21.45;;;13.30;;
39404;SDS011;25121;51.090;17.038;2022-12-07T06:03:51;20.98;;;13.70;;
39404;SDS011;25121;51.090;17.038;2022-12-07T06:05:15;20.25;;;13.57;;
39404;SDS011;25121;51.090;17.038;2022-12-07T06:06:38;22.80;;;14.07;;
39404;SDS011;25121;51.090;17.038;2022-12-07T06:08:01;21.48;;;13.82;;
39404;SDS011;25121;51.090;17.038;2022-12-07T06:09:25;22.55;;;14.23;;
39404;SDS011;25121;51.090;17.038;2022-12-07T06:10:48;21.42;;;14.32;;
39404;SDS011;25121;51.090;17.038;2022-12-07T06:12:31;23.02;;;14.77;;
39404;SDS011;25121;51.090;17.038;2022-12-07T06:13:58;23.20;;;14.15;;
39404;SDS011;25121;51.090;17.038;2022-12-07T06:15:19;23.05;;;15.55;;
39404;SDS011;25121;51.090;17.038;2022-12-07T06:16:43;23.77;;;14.30;;
39404;SDS011;25121;51.090;17.038;2022-12-07T06:18:04;21.17;;;13.68;;
39404;SDS011;25121;51.090;17.038;2022-12-07T06:19:26;22.70;;;14.77;;
39404;SDS011;25121;51.090;17.038;2022-12-07T06:22:14;24.17;;;14.73;;
39404;SDS011;25121;51.090;17.038;2022-12-07T06:23:36;22.88;;;14.60;;
39404;SDS011;25121;51.090;17.038;2022-12-07T06:26:27;25.45;;;15.35;;
39404;SDS011;25121;51.090;17.038;2022-12-07T06:27:48;23.45;;;15.18;;
39404;SDS011;25121;51.090;17.038;2022-12-07T06:29:45;25.95;;;14.88;;
39404;SDS011;25121;51.090;17.038;2022-12-07T06:31:08;26.27;;;16.67;;
39404;SDS011;25121;51.090;17.038;2022-12-07T06:32:33;25.08;;;15.68;;
39404;SDS011;25121;51.090;17.038;2022-12-07T06:33:58;25.70;;;17.10;;
39404;SDS011;25121;51.090;17.038;2022-12-07T06:35:21;24.70;;;15.25;;
39404;SDS011;25121;51.090;17.038;2022-12-07T06:36:43;26.92;;;17.13;;
39404;SDS011;25121;51.090;17.038;2022-12-07T06:38:06;26.25;;;16.90;;
39404;SDS011;25121;51.090;17.038;2022-12-07T06:39:28;25.08;;;16.55;;
39404;SDS011;25121;51.090;17.038;2022-12-07T06:40:51;27.98;;;16.45;;
39404;SDS011;25121;51.090;17.038;2022-12-07T06:42:11;26.55;;;17.13;;
39404;SDS011;25121;51.090;17.038;2022-12-07T06:43:34;27.23;;;17.48;;
39404;SDS011;25121;51.090;17.038;2022-12-07T06:44:56;28.15;;;17.92;;
39404;SDS011;25121;51.090;17.038;2022-12-07T06:46:21;27.10;;;16.95;;
39404;SDS011;25121;51.090;17.038;2022-12-07T06:47:43;25.48;;;16.45;;
39404;SDS011;25121;51.090;17.038;2022-12-07T06:49:06;28.73;;;18.02;;
39404;SDS011;25121;51.090;17.038;2022-12-07T06:51:52;25.80;;;15.80;;
39404;SDS011;25121;51.090;17.038;2022-12-07T06:53:50;29.15;;;17.08;;
39404;SDS011;25121;51.090;17.038;2022-12-07T06:55:15;26.98;;;16.63;;
39404;SDS011;25121;51.090;17.038;2022-12-07T06:56:37;25.42;;;17.00;;
39404;SDS011;25121;51.090;17.038;2022-12-07T06:58:00;25.00;;;15.68;;
39404;SDS011;25121;51.090;17.038;2022-12-07T06:59:22;30.50;;;18.02;;
39404;SDS011;25121;51.090;17.038;2022-12-07T07:00:47;27.33;;;17.05;;
39404;SDS011;25121;51.090;17.038;2022-12-07T07:02:09;27.05;;;16.65;;
39404;SDS011;25121;51.090;17.038;2022-12-07T07:03:31;25.92;;;17.20;;
39404;SDS011;25121;51.090;17.038;2022-12-07T07:06:15;28.70;;;16.90;;
39404;SDS011;25121;51.090;17.038;2022-12-07T07:07:37;25.52;;;15.65;;
39404;SDS011;25121;51.090;17.038;2022-12-07T07:09:19;24.30;;;16.40;;
39404;SDS011;25121;51.090;17.038;2022-12-07T07:10:41;26.80;;;17.13;;
39404;SDS011;25121;51.090;17.038;2022-12-07T07:12:03;29.30;;;17.45;;
39404;SDS011;25121;51.090;17.038;2022-12-07T07:14:50;25.83;;;15.97;;
39404;SDS011;25121;51.090;17.038;2022-12-07T07:16:12;28.70;;;16.55;;
39404;SDS011;25121;51.090;17.038;2022-12-07T07:17:37;28.00;;;16.95;;
39404;SDS011;25121;51.090;17.038;2022-12-07T07:19:06;25.35;;;15.40;;
39404;SDS011;25121;51.090;17.038;2022-12-07T07:21:51;24.95;;;15.32;;
39404;SDS011;25121;51.090;17.038;2022-12-07T07:23:13;26.75;;;16.95;;
39404;SDS011;25121;51.090;17.038;2022-12-07T07:24:35;27.08;;;17.02;;
39404;SDS011;25121;51.090;17.038;2022-12-07T07:25:57;26.15;;;16.02;;
39404;SDS011;25121;51.090;17.038;2022-12-07T07:27:19;27.88;;;16.65;;
39404;SDS011;25121;51.090;17.038;2022-12-07T07:28:41;20.88;;;15.05;;
39404;SDS011;25121;51.090;17.038;2022-12-07T07:30:04;26.13;;;16.88;;
39404;SDS011;25121;51.090;17.038;2022-12-07T07:31:26;33.50;;;17.58;;
39404;SDS011;25121;51.090;17.038;2022-12-07T07:32:49;26.13;;;16.63;;
39404;SDS011;25121;51.090;17.038;2022-12-07T07:34:10;28.60;;;17.50;;
39404;SDS011;25121;51.090;17.038;2022-12-07T07:35:33;27.13;;;15.43;;
39404;SDS011;25121;51.090;17.038;2022-12-07T07:36:55;26.45;;;16.27;;
39404;SDS011;25121;51.090;17.038;2022-12-07T07:38:17;24.33;;;16.38;;
39404;SDS011;25121;51.090;17.038;2022-12-07T07:39:41;28.23;;;17.23;;
39404;SDS011;25121;51.090;17.038;2022-12-07T07:41:03;27.50;;;16.70;;
39404;SDS011;25121;51.090;17.038;2022-12-07T07:42:28;28.17;;;17.02;;
39404;SDS011;25121;51.090;17.038;2022-12-07T07:43:50;28.58;;;16.80;;
39404;SDS011;25121;51.090;17.038;2022-12-07T07:45:12;25.52;;;17.45;;
39404;SDS011;25121;51.090;17.038;2022-12-07T07:46:35;26.15;;;15.50;;
39404;SDS011;25121;51.090;17.038;2022-12-07T07:47:57;25.45;;;15.68;;
39404;SDS011;25121;51.090;17.038;2022-12-07T07:49:19;22.77;;;15.10;;
39404;SDS011;25121;51.090;17.038;2022-12-07T07:52:04;48.80;;;22.38;;
39404;SDS011;25121;51.090;17.038;2022-12-07T07:53:27;38.88;;;18.80;;
39404;SDS011;25121;51.090;17.038;2022-12-07T07:54:50;44.10;;;20.73;;
39404;SDS011;25121;51.090;17.038;2022-12-07T07:56:12;54.03;;;23.70;;
39404;SDS011;25121;51.090;17.038;2022-12-07T07:57:35;31.50;;;18.05;;
39404;SDS011;25121;51.090;17.038;2022-12-07T07:58:57;31.30;;;17.48;;
39404;SDS011;25121;51.090;17.038;2022-12-07T08:00:19;29.05;;;16.38;;
39404;SDS011;25121;51.090;17.038;2022-12-07T08:01:44;30.17;;;17.45;;
39404;SDS011;25121;51.090;17.038;2022-12-07T08:03:06;37.35;;;19.63;;
39404;SDS011;25121;51.090;17.038;2022-12-07T08:05:50;36.80;;;17.27;;
39404;SDS011;25121;51.090;17.038;2022-12-07T08:07:12;28.20;;;16.23;;
39404;SDS011;25121;51.090;17.038;2022-12-07T08:08:36;29.60;;;17.55;;
39404;SDS011;25121;51.090;17.038;2022-12-07T08:09:59;30.52;;;16.25;;
39404;SDS011;25121;51.090;17.038;2022-12-07T08:11:25;28.63;;;16.85;;
39404;SDS011;25121;51.090;17.038;2022-12-07T08:12:47;31.27;;;17.45;;
39404;SDS011;25121;51.090;17.038;2022-12-07T08:14:26;23.92;;;15.60;;
39404;SDS011;25121;51.090;17.038;2022-12-07T08:15:49;33.67;;;18.73;;
39404;SDS011;25121;51.090;17.038;2022-12-07T08:17:12;23.75;;;15.73;;
39404;SDS011;25121;51.090;17.038;2022-12-07T08:18:34;27.20;;;16.25;;
39404;SDS011;25121;51.090;17.038;2022-12-07T08:19:58;23.80;;;15.60;;
39404;SDS011;25121;51.090;17.038;2022-12-07T08:21:21;23.65;;;14.60;;
39404;SDS011;25121;51.090;17.038;2022-12-07T08:22:44;21.73;;;15.20;;
39404;SDS011;25121;51.090;17.038;2022-12-07T08:24:06;20.98;;;14.80;;
39404;SDS011;25121;51.090;17.038;2022-12-07T08:25:30;23.20;;;16.23;;
39404;SDS011;25121;51.090;17.038;2022-12-07T08:26:55;24.50;;;14.75;;
39404;SDS011;25121;51.090;17.038;2022-12-07T08:28:17;21.58;;;14.77;;
39404;SDS011;25121;51.090;17.038;2022-12-07T08:29:42;22.77;;;15.10;;
39404;SDS011;25121;51.090;17.038;2022-12-07T08:31:10;22.35;;;14.40;;
39404;SDS011;25121;51.090;17.038;2022-12-07T08:32:51;23.55;;;14.93;;
39404;SDS011;25121;51.090;17.038;2022-12-07T08:34:13;21.92;;;13.93;;
39404;SDS011;25121;51.090;17.038;2022-12-07T08:35:35;23.85;;;14.77;;
39404;SDS011;25121;51.090;17.038;2022-12-07T08:37:00;20.90;;;14.15;;
39404;SDS011;25121;51.090;17.038;2022-12-07T08:38:27;22.65;;;15.48;;
39404;SDS011;25121;51.090;17.038;2022-12-07T08:39:51;21.70;;;14.15;;
39404;SDS011;25121;51.090;17.038;2022-12-07T08:41:19;20.00;;;13.38;;
39404;SDS011;25121;51.090;17.038;2022-12-07T08:42:41;20.60;;;14.55;;
39404;SDS011;25121;51.090;17.038;2022-12-07T08:44:06;23.38;;;14.30;;